KDTL

Detroit Lakes-Wething Field Airport

Detroit Lakes, Minnesota, USA
METAR KDTL 240755Z AUTO 15010KT 10SM CLR 20/16 A2995 RMK AO2 LTG DSNT NE AND E
Observed Flight Rules
May-24 @ 07:55 UTC (15 minutes ago) Visual Flight Rules
Wind Visibility Clouds
150° at 10 knots 10 miles
  • Clear skies
Temperatures Readings
Current 20°C / 68°F
Dewpoint 16°C / 61°F
Humidity 78%
Altimeter 29.95" Hg
Pressure 1014 hPa
Elevation 426
METAR KDTL 240755Z AUTO 15010KT 10SM CLR 20/16 A2995 RMK AO2 LTG DSNT NE AND E
Observed Flight Rules
May-24 @ 07:55 UTC
(15 minutes ago)
VFR
Wind Visibility
150° at 10 knots 10 miles
Clouds
  • Clear skies
Temperature Dewpoint
20°C / 68°F 16°C / 61°F
Humidity Altimeter Pressure
78% 29.95" Hg 1014 hPa